sensor_id;sensor_type;location;lat;lon;timestamp;temperature;humidity
6443;DHT22;3254;47.372;8.512;2022-12-16T00:00:04;0.70;99.90
6443;DHT22;3254;47.372;8.512;2022-12-16T00:02:30;0.70;99.90
6443;DHT22;3254;47.372;8.512;2022-12-16T00:04:56;0.70;99.90
6443;DHT22;3254;47.372;8.512;2022-12-16T00:07:22;0.70;99.90
6443;DHT22;3254;47.372;8.512;2022-12-16T00:09:48;0.70;99.90
6443;DHT22;3254;47.372;8.512;2022-12-16T00:12:13;0.70;99.90
6443;DHT22;3254;47.372;8.512;2022-12-16T00:14:39;0.70;99.90
6443;DHT22;3254;47.372;8.512;2022-12-16T00:17:04;0.70;99.90
6443;DHT22;3254;47.372;8.512;2022-12-16T00:19:30;0.70;99.90
6443;DHT22;3254;47.372;8.512;2022-12-16T00:21:56;0.70;99.90
6443;DHT22;3254;47.372;8.512;2022-12-16T00:24:21;0.70;99.90
6443;DHT22;3254;47.372;8.512;2022-12-16T00:26:47;0.70;99.90
6443;DHT22;3254;47.372;8.512;2022-12-16T00:29:13;0.70;99.90
6443;DHT22;3254;47.372;8.512;2022-12-16T00:31:38;0.60;99.90
6443;DHT22;3254;47.372;8.512;2022-12-16T00:34:04;0.60;99.90
6443;DHT22;3254;47.372;8.512;2022-12-16T00:36:29;0.60;99.90
6443;DHT22;3254;47.372;8.512;2022-12-16T00:38:55;0.50;99.90
6443;DHT22;3254;47.372;8.512;2022-12-16T00:41:21;0.50;99.90
6443;DHT22;3254;47.372;8.512;2022-12-16T00:43:47;0.50;99.90
6443;DHT22;3254;47.372;8.512;2022-12-16T00:46:12;0.50;99.90
6443;DHT22;3254;47.372;8.512;2022-12-16T00:48:38;0.50;99.90
6443;DHT22;3254;47.372;8.512;2022-12-16T00:51:03;0.50;99.90
6443;DHT22;3254;47.372;8.512;2022-12-16T00:53:30;0.40;99.90
6443;DHT22;3254;47.372;8.512;2022-12-16T00:56:07;0.40;99.90
6443;DHT22;3254;47.372;8.512;2022-12-16T00:58:33;0.40;99.90
6443;DHT22;3254;47.372;8.512;2022-12-16T01:01:00;0.40;99.90
6443;DHT22;3254;47.372;8.512;2022-12-16T01:03:25;0.40;99.90
6443;DHT22;3254;47.372;8.512;2022-12-16T01:05:51;0.40;99.90
6443;DHT22;3254;47.372;8.512;2022-12-16T01:08:17;0.40;99.90
6443;DHT22;3254;47.372;8.512;2022-12-16T01:10:55;0.40;99.90
6443;DHT22;3254;47.372;8.512;2022-12-16T01:13:23;0.50;99.90
6443;DHT22;3254;47.372;8.512;2022-12-16T01:15:49;0.50;99.90
6443;DHT22;3254;47.372;8.512;2022-12-16T01:18:15;0.50;99.90
6443;DHT22;3254;47.372;8.512;2022-12-16T01:20:41;0.50;99.90
6443;DHT22;3254;47.372;8.512;2022-12-16T01:23:07;0.50;99.90
6443;DHT22;3254;47.372;8.512;2022-12-16T01:25:32;0.50;99.90
6443;DHT22;3254;47.372;8.512;2022-12-16T01:27:58;0.60;99.90
6443;DHT22;3254;47.372;8.512;2022-12-16T01:30:24;0.50;99.90
6443;DHT22;3254;47.372;8.512;2022-12-16T01:32:50;0.50;99.90
6443;DHT22;3254;47.372;8.512;2022-12-16T01:35:16;0.50;99.90
6443;DHT22;3254;47.372;8.512;2022-12-16T01:37:41;0.50;99.90
6443;DHT22;3254;47.372;8.512;2022-12-16T01:40:09;0.40;99.90
6443;DHT22;3254;47.372;8.512;2022-12-16T01:42:40;0.40;99.90
6443;DHT22;3254;47.372;8.512;2022-12-16T01:45:29;0.40;99.90
6443;DHT22;3254;47.372;8.512;2022-12-16T01:47:58;0.40;99.90
6443;DHT22;3254;47.372;8.512;2022-12-16T01:50:27;0.40;99.90
6443;DHT22;3254;47.372;8.512;2022-12-16T01:52:55;0.40;99.90
6443;DHT22;3254;47.372;8.512;2022-12-16T01:55:45;0.40;99.90
6443;DHT22;3254;47.372;8.512;2022-12-16T01:58:14;0.40;99.90
6443;DHT22;3254;47.372;8.512;2022-12-16T02:00:41;0.40;99.90
6443;DHT22;3254;47.372;8.512;2022-12-16T02:03:08;0.50;99.90
6443;DHT22;3254;47.372;8.512;2022-12-16T02:05:38;0.50;99.90
6443;DHT22;3254;47.372;8.512;2022-12-16T02:13:34;0.40;99.90
6443;DHT22;3254;47.372;8.512;2022-12-16T02:27:21;0.30;99.90
6443;DHT22;3254;47.372;8.512;2022-12-16T02:32:39;0.40;99.90
6443;DHT22;3254;47.372;8.512;2022-12-16T02:38:31;0.40;99.90
6443;DHT22;3254;47.372;8.512;2022-12-16T02:41:03;0.40;99.90
6443;DHT22;3254;47.372;8.512;2022-12-16T02:46:18;0.40;99.90
6443;DHT22;3254;47.372;8.512;2022-12-16T02:48:46;0.40;99.90
6443;DHT22;3254;47.372;8.512;2022-12-16T02:51:12;0.40;99.90
6443;DHT22;3254;47.372;8.512;2022-12-16T02:53:38;0.40;99.90
6443;DHT22;3254;47.372;8.512;2022-12-16T02:56:23;0.30;99.90
6443;DHT22;3254;47.372;8.512;2022-12-16T02:59:15;0.30;99.90
6443;DHT22;3254;47.372;8.512;2022-12-16T03:04:39;0.30;99.90
6443;DHT22;3254;47.372;8.512;2022-12-16T03:07:11;0.30;99.90
6443;DHT22;3254;47.372;8.512;2022-12-16T03:09:39;0.30;99.90
6443;DHT22;3254;47.372;8.512;2022-12-16T03:12:09;0.30;99.90
6443;DHT22;3254;47.372;8.512;2022-12-16T03:14:39;0.30;99.90
6443;DHT22;3254;47.372;8.512;2022-12-16T03:17:07;0.20;99.90
6443;DHT22;3254;47.372;8.512;2022-12-16T03:19:35;0.20;99.90
6443;DHT22;3254;47.372;8.512;2022-12-16T03:22:06;0.30;99.90
6443;DHT22;3254;47.372;8.512;2022-12-16T03:24:35;0.30;99.90
6443;DHT22;3254;47.372;8.512;2022-12-16T03:27:12;0.30;99.90
6443;DHT22;3254;47.372;8.512;2022-12-16T03:30:11;0.30;99.90
6443;DHT22;3254;47.372;8.512;2022-12-16T03:32:39;0.30;99.90
6443;DHT22;3254;47.372;8.512;2022-12-16T03:35:19;0.30;99.90
6443;DHT22;3254;47.372;8.512;2022-12-16T03:37:48;0.30;99.90
6443;DHT22;3254;47.372;8.512;2022-12-16T03:40:16;0.30;99.90
6443;DHT22;3254;47.372;8.512;2022-12-16T03:42:43;0.30;99.90
6443;DHT22;3254;47.372;8.512;2022-12-16T03:45:14;0.30;99.90
6443;DHT22;3254;47.372;8.512;2022-12-16T03:47:41;0.30;99.90
6443;DHT22;3254;47.372;8.512;2022-12-16T03:50:07;0.30;99.90
6443;DHT22;3254;47.372;8.512;2022-12-16T03:52:33;0.30;99.90
6443;DHT22;3254;47.372;8.512;2022-12-16T03:54:59;0.30;99.90
6443;DHT22;3254;47.372;8.512;2022-12-16T03:57:24;0.20;99.90
6443;DHT22;3254;47.372;8.512;2022-12-16T03:59:50;0.30;99.90
6443;DHT22;3254;47.372;8.512;2022-12-16T04:02:15;0.30;99.90
6443;DHT22;3254;47.372;8.512;2022-12-16T04:04:41;0.30;99.90
6443;DHT22;3254;47.372;8.512;2022-12-16T04:07:06;0.30;99.90
6443;DHT22;3254;47.372;8.512;2022-12-16T04:09:51;0.30;99.90
6443;DHT22;3254;47.372;8.512;2022-12-16T04:12:17;0.30;99.90
6443;DHT22;3254;47.372;8.512;2022-12-16T04:15:02;0.30;99.90
6443;DHT22;3254;47.372;8.512;2022-12-16T04:17:46;0.30;99.90
6443;DHT22;3254;47.372;8.512;2022-12-16T04:20:33;0.30;99.90
6443;DHT22;3254;47.372;8.512;2022-12-16T04:23:19;0.30;99.90
6443;DHT22;3254;47.372;8.512;2022-12-16T04:26:03;0.30;99.90
6443;DHT22;3254;47.372;8.512;2022-12-16T04:28:29;0.20;99.90
6443;DHT22;3254;47.372;8.512;2022-12-16T04:30:55;0.20;99.90
6443;DHT22;3254;47.372;8.512;2022-12-16T04:33:21;0.20;99.90
6443;DHT22;3254;47.372;8.512;2022-12-16T04:36:06;0.20;99.90
6443;DHT22;3254;47.372;8.512;2022-12-16T04:38:50;0.20;99.90
6443;DHT22;3254;47.372;8.512;2022-12-16T04:41:34;0.20;99.90
6443;DHT22;3254;47.372;8.512;2022-12-16T04:44:18;0.20;99.90
6443;DHT22;3254;47.372;8.512;2022-12-16T04:47:03;0.20;99.90
6443;DHT22;3254;47.372;8.512;2022-12-16T04:50:07;0.20;99.90
6443;DHT22;3254;47.372;8.512;2022-12-16T04:52:51;0.10;99.90
6443;DHT22;3254;47.372;8.512;2022-12-16T04:55:36;0.10;99.90
6443;DHT22;3254;47.372;8.512;2022-12-16T04:58:20;0.10;99.90
6443;DHT22;3254;47.372;8.512;2022-12-16T05:01:04;0.10;99.90
6443;DHT22;3254;47.372;8.512;2022-12-16T05:03:48;0.10;99.90
6443;DHT22;3254;47.372;8.512;2022-12-16T05:06:33;0.10;99.90
6443;DHT22;3254;47.372;8.512;2022-12-16T05:09:17;0.10;99.90
6443;DHT22;3254;47.372;8.512;2022-12-16T05:12:02;0.10;99.90
6443;DHT22;3254;47.372;8.512;2022-12-16T05:14:46;0.10;99.90
6443;DHT22;3254;47.372;8.512;2022-12-16T05:17:30;0.10;99.90
6443;DHT22;3254;47.372;8.512;2022-12-16T05:20:14;0.10;99.90
6443;DHT22;3254;47.372;8.512;2022-12-16T05:22:58;0.10;99.90
6443;DHT22;3254;47.372;8.512;2022-12-16T05:25:42;0.10;99.90
6443;DHT22;3254;47.372;8.512;2022-12-16T05:28:26;0.00;99.90
6443;DHT22;3254;47.372;8.512;2022-12-16T05:31:11;0.00;99.90
6443;DHT22;3254;47.372;8.512;2022-12-16T05:33:55;0.10;99.90
6443;DHT22;3254;47.372;8.512;2022-12-16T05:36:39;0.10;99.90
6443;DHT22;3254;47.372;8.512;2022-12-16T05:39:23;0.10;99.90
6443;DHT22;3254;47.372;8.512;2022-12-16T05:42:07;0.00;99.90
6443;DHT22;3254;47.372;8.512;2022-12-16T05:44:52;0.00;99.90
6443;DHT22;3254;47.372;8.512;2022-12-16T05:47:36;0.00;99.90
6443;DHT22;3254;47.372;8.512;2022-12-16T05:50:20;0.00;99.90
6443;DHT22;3254;47.372;8.512;2022-12-16T05:53:04;-0.10;99.90
6443;DHT22;3254;47.372;8.512;2022-12-16T05:55:48;-0.10;99.90
6443;DHT22;3254;47.372;8.512;2022-12-16T05:58:33;-0.10;99.90
6443;DHT22;3254;47.372;8.512;2022-12-16T06:01:17;-0.10;99.90
6443;DHT22;3254;47.372;8.512;2022-12-16T06:04:01;-0.10;99.90
6443;DHT22;3254;47.372;8.512;2022-12-16T06:06:45;-0.10;99.90
6443;DHT22;3254;47.372;8.512;2022-12-16T06:09:29;-0.10;99.90
6443;DHT22;3254;47.372;8.512;2022-12-16T06:12:13;-0.10;99.90
6443;DHT22;3254;47.372;8.512;2022-12-16T06:14:58;-0.10;99.90
6443;DHT22;3254;47.372;8.512;2022-12-16T06:17:46;-0.10;99.90
6443;DHT22;3254;47.372;8.512;2022-12-16T06:20:30;-0.10;99.90
6443;DHT22;3254;47.372;8.512;2022-12-16T06:23:15;-0.10;99.90
6443;DHT22;3254;47.372;8.512;2022-12-16T06:25:59;-0.10;99.90
6443;DHT22;3254;47.372;8.512;2022-12-16T06:28:43;-0.10;99.90
6443;DHT22;3254;47.372;8.512;2022-12-16T06:31:27;-0.10;99.90
6443;DHT22;3254;47.372;8.512;2022-12-16T06:34:11;-0.10;99.90
6443;DHT22;3254;47.372;8.512;2022-12-16T06:36:55;-0.10;99.90
6443;DHT22;3254;47.372;8.512;2022-12-16T06:39:39;-0.10;99.90
6443;DHT22;3254;47.372;8.512;2022-12-16T06:42:23;-0.10;99.90
6443;DHT22;3254;47.372;8.512;2022-12-16T06:45:08;-0.10;99.90
6443;DHT22;3254;47.372;8.512;2022-12-16T06:47:53;0.00;99.90
6443;DHT22;3254;47.372;8.512;2022-12-16T06:50:37;-0.10;99.90
6443;DHT22;3254;47.372;8.512;2022-12-16T06:53:21;-0.10;99.90
6443;DHT22;3254;47.372;8.512;2022-12-16T06:56:05;-0.10;99.90
6443;DHT22;3254;47.372;8.512;2022-12-16T06:58:50;-0.20;99.90
6443;DHT22;3254;47.372;8.512;2022-12-16T07:01:34;-0.20;99.90
6443;DHT22;3254;47.372;8.512;2022-12-16T07:04:18;-0.20;99.90
6443;DHT22;3254;47.372;8.512;2022-12-16T07:07:02;-0.20;99.90
6443;DHT22;3254;47.372;8.512;2022-12-16T07:09:46;-0.20;99.90
6443;DHT22;3254;47.372;8.512;2022-12-16T07:12:30;-0.20;99.90
6443;DHT22;3254;47.372;8.512;2022-12-16T07:15:15;-0.20;99.90
6443;DHT22;3254;47.372;8.512;2022-12-16T07:18:09;-0.20;99.90
6443;DHT22;3254;47.372;8.512;2022-12-16T07:20:54;-0.10;99.90
6443;DHT22;3254;47.372;8.512;2022-12-16T07:23:38;-0.10;99.90
6443;DHT22;3254;47.372;8.512;2022-12-16T07:26:22;-0.10;99.90
6443;DHT22;3254;47.372;8.512;2022-12-16T07:29:06;-0.20;99.90
6443;DHT22;3254;47.372;8.512;2022-12-16T07:31:50;-0.10;99.90
6443;DHT22;3254;47.372;8.512;2022-12-16T07:34:34;-0.10;99.90
6443;DHT22;3254;47.372;8.512;2022-12-16T07:37:19;-0.10;99.90
6443;DHT22;3254;47.372;8.512;2022-12-16T07:40:03;-0.10;99.90
6443;DHT22;3254;47.372;8.512;2022-12-16T07:42:48;-0.10;99.90
6443;DHT22;3254;47.372;8.512;2022-12-16T07:45:32;-0.20;99.90
6443;DHT22;3254;47.372;8.512;2022-12-16T07:48:16;-0.20;99.90
6443;DHT22;3254;47.372;8.512;2022-12-16T07:51:00;-0.10;99.90
6443;DHT22;3254;47.372;8.512;2022-12-16T07:53:44;-0.20;99.90
6443;DHT22;3254;47.372;8.512;2022-12-16T07:56:28;-0.20;99.90
6443;DHT22;3254;47.372;8.512;2022-12-16T07:59:13;-0.20;99.90
6443;DHT22;3254;47.372;8.512;2022-12-16T08:01:57;-0.30;99.90
6443;DHT22;3254;47.372;8.512;2022-12-16T08:04:42;-0.20;99.90
6443;DHT22;3254;47.372;8.512;2022-12-16T08:07:26;-0.30;99.90
6443;DHT22;3254;47.372;8.512;2022-12-16T08:10:10;-0.30;99.90
6443;DHT22;3254;47.372;8.512;2022-12-16T08:13:02;-0.30;99.90
6443;DHT22;3254;47.372;8.512;2022-12-16T08:15:46;-0.30;99.90
6443;DHT22;3254;47.372;8.512;2022-12-16T08:18:30;-0.30;99.90
6443;DHT22;3254;47.372;8.512;2022-12-16T08:21:14;-0.30;99.90
6443;DHT22;3254;47.372;8.512;2022-12-16T08:23:58;-0.30;99.90
6443;DHT22;3254;47.372;8.512;2022-12-16T08:26:43;-0.30;99.90
6443;DHT22;3254;47.372;8.512;2022-12-16T08:29:28;-0.40;99.90
6443;DHT22;3254;47.372;8.512;2022-12-16T08:32:13;-0.30;99.90
6443;DHT22;3254;47.372;8.512;2022-12-16T08:34:57;-0.30;99.90
6443;DHT22;3254;47.372;8.512;2022-12-16T08:37:41;-0.30;99.90
6443;DHT22;3254;47.372;8.512;2022-12-16T08:40:25;-0.20;99.90
6443;DHT22;3254;47.372;8.512;2022-12-16T08:43:10;-0.10;99.90
6443;DHT22;3254;47.372;8.512;2022-12-16T08:45:55;-0.10;99.90
6443;DHT22;3254;47.372;8.512;2022-12-16T08:48:39;0.00;99.90
6443;DHT22;3254;47.372;8.512;2022-12-16T08:51:23;0.00;99.90
6443;DHT22;3254;47.372;8.512;2022-12-16T08:54:07;0.00;99.90
6443;DHT22;3254;47.372;8.512;2022-12-16T08:57:11;0.00;98.90
6443;DHT22;3254;47.372;8.512;2022-12-16T08:59:55;0.10;99.90
6443;DHT22;3254;47.372;8.512;2022-12-16T09:02:39;0.10;98.10
6443;DHT22;3254;47.372;8.512;2022-12-16T09:05:24;0.10;96.70
6443;DHT22;3254;47.372;8.512;2022-12-16T09:08:08;0.00;93.00
6443;DHT22;3254;47.372;8.512;2022-12-16T09:10:52;-0.10;93.00
6443;DHT22;3254;47.372;8.512;2022-12-16T09:13:36;-0.10;94.20
6443;DHT22;3254;47.372;8.512;2022-12-16T09:16:21;-0.10;94.20
6443;DHT22;3254;47.372;8.512;2022-12-16T09:19:05;-0.10;94.10
6443;DHT22;3254;47.372;8.512;2022-12-16T09:21:49;0.00;94.00
6443;DHT22;3254;47.372;8.512;2022-12-16T09:24:33;0.00;95.40
6443;DHT22;3254;47.372;8.512;2022-12-16T09:27:17;0.00;94.50
6443;DHT22;3254;47.372;8.512;2022-12-16T09:30:02;0.10;95.30
6443;DHT22;3254;47.372;8.512;2022-12-16T09:32:46;0.10;96.00
6443;DHT22;3254;47.372;8.512;2022-12-16T09:35:31;0.10;94.80
6443;DHT22;3254;47.372;8.512;2022-12-16T09:38:25;0.00;93.10
6443;DHT22;3254;47.372;8.512;2022-12-16T09:44:24;0.10;96.90
6443;DHT22;3254;47.372;8.512;2022-12-16T09:50:25;0.10;95.80
6443;DHT22;3254;47.372;8.512;2022-12-16T09:53:16;0.10;96.30
6443;DHT22;3254;47.372;8.512;2022-12-16T09:56:27;0.10;94.00
6443;DHT22;3254;47.372;8.512;2022-12-16T09:59:14;0.00;95.20
6443;DHT22;3254;47.372;8.512;2022-12-16T10:01:58;0.00;95.30
6443;DHT22;3254;47.372;8.512;2022-12-16T10:04:50;0.00;94.70
6443;DHT22;3254;47.372;8.512;2022-12-16T10:07:39;0.00;94.30
6443;DHT22;3254;47.372;8.512;2022-12-16T10:10:32;0.00;95.30
6443;DHT22;3254;47.372;8.512;2022-12-16T10:13:38;0.00;93.10
6443;DHT22;3254;47.372;8.512;2022-12-16T10:25:16;0.10;89.00
6443;DHT22;3254;47.372;8.512;2022-12-16T10:31:02;0.30;86.30
6443;DHT22;3254;47.372;8.512;2022-12-16T10:33:48;0.20;81.90
6443;DHT22;3254;47.372;8.512;2022-12-16T10:36:34;0.20;85.20
6443;DHT22;3254;47.372;8.512;2022-12-16T10:39:37;0.00;78.80
6443;DHT22;3254;47.372;8.512;2022-12-16T10:43:01;0.00;77.70
6443;DHT22;3254;47.372;8.512;2022-12-16T10:45:49;0.00;82.10
6443;DHT22;3254;47.372;8.512;2022-12-16T10:48:34;0.10;85.50
6443;DHT22;3254;47.372;8.512;2022-12-16T10:51:21;0.20;86.00
6443;DHT22;3254;47.372;8.512;2022-12-16T10:54:31;0.30;82.80
6443;DHT22;3254;47.372;8.512;2022-12-16T10:57:42;0.30;77.00
6443;DHT22;3254;47.372;8.512;2022-12-16T11:00:45;0.20;75.30
6443;DHT22;3254;47.372;8.512;2022-12-16T11:03:31;0.20;73.10
6443;DHT22;3254;47.372;8.512;2022-12-16T11:06:25;0.20;82.90
6443;DHT22;3254;47.372;8.512;2022-12-16T11:09:24;0.10;75.00
6443;DHT22;3254;47.372;8.512;2022-12-16T11:12:27;0.10;75.90
6443;DHT22;3254;47.372;8.512;2022-12-16T11:15:27;0.20;80.90
6443;DHT22;3254;47.372;8.512;2022-12-16T11:18:14;0.30;79.60
6443;DHT22;3254;47.372;8.512;2022-12-16T11:24:16;0.30;75.60
6443;DHT22;3254;47.372;8.512;2022-12-16T11:27:04;0.40;80.70
6443;DHT22;3254;47.372;8.512;2022-12-16T11:32:34;0.40;75.30
6443;DHT22;3254;47.372;8.512;2022-12-16T11:35:23;0.50;78.50
6443;DHT22;3254;47.372;8.512;2022-12-16T11:38:19;0.50;81.70
6443;DHT22;3254;47.372;8.512;2022-12-16T11:41:15;0.60;76.40
6443;DHT22;3254;47.372;8.512;2022-12-16T11:44:03;0.60;75.40
6443;DHT22;3254;47.372;8.512;2022-12-16T11:46:48;0.70;80.10
6443;DHT22;3254;47.372;8.512;2022-12-16T11:49:32;0.60;74.40
6443;DHT22;3254;47.372;8.512;2022-12-16T11:52:19;0.60;75.30
6443;DHT22;3254;47.372;8.512;2022-12-16T11:58:23;0.60;78.70
6443;DHT22;3254;47.372;8.512;2022-12-16T12:01:20;0.40;79.20
6443;DHT22;3254;47.372;8.512;2022-12-16T12:04:06;0.40;79.00
6443;DHT22;3254;47.372;8.512;2022-12-16T12:13:03;0.40;78.80
6443;DHT22;3254;47.372;8.512;2022-12-16T12:15:57;0.40;77.30
6443;DHT22;3254;47.372;8.512;2022-12-16T12:19:04;0.40;79.20
6443;DHT22;3254;47.372;8.512;2022-12-16T12:24:49;0.40;76.50
6443;DHT22;3254;47.372;8.512;2022-12-16T12:27:47;0.50;78.00
6443;DHT22;3254;47.372;8.512;2022-12-16T12:30:49;0.50;75.70
6443;DHT22;3254;47.372;8.512;2022-12-16T12:36:40;0.40;81.90
6443;DHT22;3254;47.372;8.512;2022-12-16T12:39:44;0.40;88.20
6443;DHT22;3254;47.372;8.512;2022-12-16T12:42:51;0.30;82.30
6443;DHT22;3254;47.372;8.512;2022-12-16T12:48:57;0.00;88.40
6443;DHT22;3254;47.372;8.512;2022-12-16T12:51:58;0.10;92.10
6443;DHT22;3254;47.372;8.512;2022-12-16T12:57:54;0.10;94.50
6443;DHT22;3254;47.372;8.512;2022-12-16T13:00:49;0.20;95.80
6443;DHT22;3254;47.372;8.512;2022-12-16T13:03:48;0.20;96.50
6443;DHT22;3254;47.372;8.512;2022-12-16T13:06:36;0.20;97.30
6443;DHT22;3254;47.372;8.512;2022-12-16T13:09:35;0.30;97.00
6443;DHT22;3254;47.372;8.512;2022-12-16T13:12:32;0.20;97.10
6443;DHT22;3254;47.372;8.512;2022-12-16T13:15:33;0.20;97.10
6443;DHT22;3254;47.372;8.512;2022-12-16T13:18:23;0.20;98.70
6443;DHT22;3254;47.372;8.512;2022-12-16T13:24:33;0.10;97.70
6443;DHT22;3254;47.372;8.512;2022-12-16T13:27:19;0.00;98.50
6443;DHT22;3254;47.372;8.512;2022-12-16T13:33:01;0.10;99.90
6443;DHT22;3254;47.372;8.512;2022-12-16T13:36:00;0.10;99.90
6443;DHT22;3254;47.372;8.512;2022-12-16T13:38:50;0.00;99.90
6443;DHT22;3254;47.372;8.512;2022-12-16T13:50:39;0.10;99.90
6443;DHT22;3254;47.372;8.512;2022-12-16T13:53:26;0.10;99.90
6443;DHT22;3254;47.372;8.512;2022-12-16T13:56:13;0.10;99.90
6443;DHT22;3254;47.372;8.512;2022-12-16T13:59:03;0.10;99.90
6443;DHT22;3254;47.372;8.512;2022-12-16T14:01:56;0.20;99.90
6443;DHT22;3254;47.372;8.512;2022-12-16T14:04:47;0.20;99.90
6443;DHT22;3254;47.372;8.512;2022-12-16T14:07:33;0.10;99.90
6443;DHT22;3254;47.372;8.512;2022-12-16T14:10:25;0.10;99.90
6443;DHT22;3254;47.372;8.512;2022-12-16T14:13:21;0.10;99.90
6443;DHT22;3254;47.372;8.512;2022-12-16T14:16:32;0.00;99.90
6443;DHT22;3254;47.372;8.512;2022-12-16T14:23:11;-0.10;99.90
6443;DHT22;3254;47.372;8.512;2022-12-16T14:26:02;-0.10;99.90
6443;DHT22;3254;47.372;8.512;2022-12-16T14:28:47;-0.10;99.90
6443;DHT22;3254;47.372;8.512;2022-12-16T14:31:39;-0.10;99.90
6443;DHT22;3254;47.372;8.512;2022-12-16T14:34:29;-0.20;99.90
6443;DHT22;3254;47.372;8.512;2022-12-16T14:37:19;-0.10;99.90
6443;DHT22;3254;47.372;8.512;2022-12-16T14:40:19;-0.10;99.90
6443;DHT22;3254;47.372;8.512;2022-12-16T14:43:09;-0.20;99.90
6443;DHT22;3254;47.372;8.512;2022-12-16T14:45:54;-0.10;99.90
6443;DHT22;3254;47.372;8.512;2022-12-16T14:48:39;-0.20;99.90
6443;DHT22;3254;47.372;8.512;2022-12-16T14:51:28;-0.10;99.90
6443;DHT22;3254;47.372;8.512;2022-12-16T14:54:36;-0.10;99.90
6443;DHT22;3254;47.372;8.512;2022-12-16T14:57:22;-0.20;99.90
6443;DHT22;3254;47.372;8.512;2022-12-16T15:02:53;-0.10;99.90
6443;DHT22;3254;47.372;8.512;2022-12-16T15:05:39;-0.20;99.90
6443;DHT22;3254;47.372;8.512;2022-12-16T15:08:25;-0.30;99.90
6443;DHT22;3254;47.372;8.512;2022-12-16T15:11:11;-0.30;99.90
6443;DHT22;3254;47.372;8.512;2022-12-16T15:13:58;-0.30;99.90
6443;DHT22;3254;47.372;8.512;2022-12-16T15:16:44;-0.30;99.90
6443;DHT22;3254;47.372;8.512;2022-12-16T15:19:41;-0.40;99.90
6443;DHT22;3254;47.372;8.512;2022-12-16T15:22:26;-0.30;99.90
6443;DHT22;3254;47.372;8.512;2022-12-16T15:25:22;-0.30;99.90
6443;DHT22;3254;47.372;8.512;2022-12-16T15:28:45;-0.40;99.90
6443;DHT22;3254;47.372;8.512;2022-12-16T15:31:40;-0.40;99.90
6443;DHT22;3254;47.372;8.512;2022-12-16T15:34:35;-0.30;99.90
6443;DHT22;3254;47.372;8.512;2022-12-16T15:37:28;-0.30;99.90
6443;DHT22;3254;47.372;8.512;2022-12-16T15:40:32;-0.40;99.90
6443;DHT22;3254;47.372;8.512;2022-12-16T15:43:27;-0.40;99.90
6443;DHT22;3254;47.372;8.512;2022-12-16T15:46:18;-0.40;99.90
6443;DHT22;3254;47.372;8.512;2022-12-16T15:49:03;-0.40;99.90
6443;DHT22;3254;47.372;8.512;2022-12-16T15:51:49;-0.40;99.90
6443;DHT22;3254;47.372;8.512;2022-12-16T15:54:49;-0.40;99.90
6443;DHT22;3254;47.372;8.512;2022-12-16T15:57:35;-0.40;99.90
6443;DHT22;3254;47.372;8.512;2022-12-16T16:00:26;-0.50;99.90
6443;DHT22;3254;47.372;8.512;2022-12-16T16:03:23;-0.40;99.90
6443;DHT22;3254;47.372;8.512;2022-12-16T16:06:23;-0.40;99.90
6443;DHT22;3254;47.372;8.512;2022-12-16T16:11:56;-0.40;99.90
6443;DHT22;3254;47.372;8.512;2022-12-16T16:14:40;-0.40;99.90
6443;DHT22;3254;47.372;8.512;2022-12-16T16:17:24;-0.40;99.90
6443;DHT22;3254;47.372;8.512;2022-12-16T16:20:13;-0.40;99.90
6443;DHT22;3254;47.372;8.512;2022-12-16T16:22:58;-0.40;99.90
6443;DHT22;3254;47.372;8.512;2022-12-16T16:25:43;-0.40;99.90
6443;DHT22;3254;47.372;8.512;2022-12-16T16:28:35;-0.40;99.90
6443;DHT22;3254;47.372;8.512;2022-12-16T16:31:19;-0.30;99.90
6443;DHT22;3254;47.372;8.512;2022-12-16T16:34:04;-0.40;99.90
6443;DHT22;3254;47.372;8.512;2022-12-16T16:36:54;-0.40;99.90
6443;DHT22;3254;47.372;8.512;2022-12-16T16:39:38;-0.40;99.90
6443;DHT22;3254;47.372;8.512;2022-12-16T16:42:23;-0.40;99.90
6443;DHT22;3254;47.372;8.512;2022-12-16T16:45:08;-0.40;99.90
6443;DHT22;3254;47.372;8.512;2022-12-16T16:48:04;-0.50;99.90
6443;DHT22;3254;47.372;8.512;2022-12-16T16:50:49;-0.50;99.90
6443;DHT22;3254;47.372;8.512;2022-12-16T16:53:33;-0.50;99.90
6443;DHT22;3254;47.372;8.512;2022-12-16T16:56:17;-0.60;99.90
6443;DHT22;3254;47.372;8.512;2022-12-16T16:59:03;-0.70;99.90
6443;DHT22;3254;47.372;8.512;2022-12-16T17:01:47;-0.70;99.90
6443;DHT22;3254;47.372;8.512;2022-12-16T17:04:32;-0.70;99.90
6443;DHT22;3254;47.372;8.512;2022-12-16T17:07:16;-0.70;99.90
6443;DHT22;3254;47.372;8.512;2022-12-16T17:10:00;-0.70;99.90
6443;DHT22;3254;47.372;8.512;2022-12-16T17:12:44;-0.70;99.90
6443;DHT22;3254;47.372;8.512;2022-12-16T17:15:31;-0.70;99.90
6443;DHT22;3254;47.372;8.512;2022-12-16T17:18:17;-0.60;99.90
6443;DHT22;3254;47.372;8.512;2022-12-16T17:21:01;-0.60;99.90
6443;DHT22;3254;47.372;8.512;2022-12-16T17:23:45;-0.60;99.90
6443;DHT22;3254;47.372;8.512;2022-12-16T17:26:30;-0.60;99.90
6443;DHT22;3254;47.372;8.512;2022-12-16T17:29:34;-0.60;99.90
6443;DHT22;3254;47.372;8.512;2022-12-16T17:32:18;-0.70;99.90
6443;DHT22;3254;47.372;8.512;2022-12-16T17:35:03;-0.70;99.90
6443;DHT22;3254;47.372;8.512;2022-12-16T17:37:47;-0.70;99.90
6443;DHT22;3254;47.372;8.512;2022-12-16T17:40:31;-0.70;99.90
6443;DHT22;3254;47.372;8.512;2022-12-16T17:43:16;-0.70;99.90
6443;DHT22;3254;47.372;8.512;2022-12-16T17:46:05;-0.80;99.90
6443;DHT22;3254;47.372;8.512;2022-12-16T17:48:54;-0.70;99.90
6443;DHT22;3254;47.372;8.512;2022-12-16T17:51:39;-0.70;99.90
6443;DHT22;3254;47.372;8.512;2022-12-16T17:54:24;-0.70;99.90
6443;DHT22;3254;47.372;8.512;2022-12-16T17:57:08;-0.80;99.90
6443;DHT22;3254;47.372;8.512;2022-12-16T17:59:53;-0.80;99.90
6443;DHT22;3254;47.372;8.512;2022-12-16T18:02:37;-0.80;99.90
6443;DHT22;3254;47.372;8.512;2022-12-16T18:05:21;-0.70;99.90
6443;DHT22;3254;47.372;8.512;2022-12-16T18:08:05;-0.80;99.90
6443;DHT22;3254;47.372;8.512;2022-12-16T18:10:53;-0.80;99.90
6443;DHT22;3254;47.372;8.512;2022-12-16T18:13:38;-0.80;99.90
6443;DHT22;3254;47.372;8.512;2022-12-16T18:16:23;-0.80;99.90
6443;DHT22;3254;47.372;8.512;2022-12-16T18:19:10;-0.80;99.90
6443;DHT22;3254;47.372;8.512;2022-12-16T18:21:54;-0.80;99.90
6443;DHT22;3254;47.372;8.512;2022-12-16T18:24:39;-0.80;99.90
6443;DHT22;3254;47.372;8.512;2022-12-16T18:27:23;-0.80;99.90
6443;DHT22;3254;47.372;8.512;2022-12-16T18:30:08;-0.80;99.90
6443;DHT22;3254;47.372;8.512;2022-12-16T18:32:52;-0.70;99.90
6443;DHT22;3254;47.372;8.512;2022-12-16T18:35:37;-0.70;99.90
6443;DHT22;3254;47.372;8.512;2022-12-16T18:38:21;-0.70;99.90
6443;DHT22;3254;47.372;8.512;2022-12-16T18:41:19;-0.70;99.90
6443;DHT22;3254;47.372;8.512;2022-12-16T18:44:05;-0.80;99.90
6443;DHT22;3254;47.372;8.512;2022-12-16T18:46:49;-0.80;99.90
6443;DHT22;3254;47.372;8.512;2022-12-16T18:49:33;-0.80;99.90
6443;DHT22;3254;47.372;8.512;2022-12-16T18:52:19;-0.80;99.90
6443;DHT22;3254;47.372;8.512;2022-12-16T18:55:04;-0.90;99.90
6443;DHT22;3254;47.372;8.512;2022-12-16T18:57:52;-0.80;99.90
6443;DHT22;3254;47.372;8.512;2022-12-16T19:00:36;-0.80;99.90
6443;DHT22;3254;47.372;8.512;2022-12-16T19:03:20;-0.80;99.90
6443;DHT22;3254;47.372;8.512;2022-12-16T19:06:05;-0.80;99.90
6443;DHT22;3254;47.372;8.512;2022-12-16T19:08:49;-0.80;99.90
6443;DHT22;3254;47.372;8.512;2022-12-16T19:11:33;-0.80;99.90
6443;DHT22;3254;47.372;8.512;2022-12-16T19:14:17;-0.90;99.90
6443;DHT22;3254;47.372;8.512;2022-12-16T19:17:03;-0.90;99.90
6443;DHT22;3254;47.372;8.512;2022-12-16T19:19:47;-0.90;99.90
6443;DHT22;3254;47.372;8.512;2022-12-16T19:22:31;-0.90;99.90
6443;DHT22;3254;47.372;8.512;2022-12-16T19:25:16;-0.90;99.90
6443;DHT22;3254;47.372;8.512;2022-12-16T19:28:00;-0.90;99.90
6443;DHT22;3254;47.372;8.512;2022-12-16T19:30:53;-0.90;99.90
6443;DHT22;3254;47.372;8.512;2022-12-16T19:33:37;-0.90;99.90